This is the latest recevied weather packets stored in our database for station/object IW1RID-3. If no packets are shown the sender has not sent any weather packets the latest 10 day(s).
| Time | Temp. | Humidity | Pressure | Rain* | Wind** | Luminosity | Snow |
|---|---|---|---|---|---|---|---|
| 1787567116 | 29.44° C | 50% | 1074 hPa | - | - | - | - |
| 1787565911 | 29.44° C | 50% | 1074 hPa | - | - | - | - |
| 1787564706 | 28.89° C | 51% | 1074.2 hPa | - | - | - | - |
| 1787562296 | 28.89° C | 53% | 1074.2 hPa | - | - | - | - |
| 1787561092 | 28.89° C | 53% | 1074 hPa | - | - | - | - |
| 1787559887 | 27.78° C | 51% | 1073.9 hPa | - | - | - | - |
| 1787558682 | 26.67° C | 57% | 1074 hPa | - | - | - | - |
| 1787557478 | 25° C | 64% | 1074.2 hPa | - | - | - | - |
| 1787556273 | 24.44° C | 65% | 1074.2 hPa | - | - | - | - |
| 1787555069 | 23.89° C | 67% | 1074.2 hPa | - | - | - | - |
| 1787553864 | 22.78° C | 72% | 1074.1 hPa | - | - | - | - |
| 1787552660 | 21.67° C | 75% | 1074.1 hPa | - | - | - | - |
| 1787551454 | 22.22° C | 74% | 1074.1 hPa | - | - | - | - |
| 1787550251 | 21.11° C | 77% | 1074 hPa | - | - | - | - |
| 1787549045 | 20.56° C | 81% | 1073.9 hPa | - | - | - | - |
| 1787547840 | 20.56° C | 81% | 1073.7 hPa | - | - | - | - |
| 1787546635 | 20.56° C | 80% | 1073.6 hPa | - | - | - | - |
| 1787545430 | 20.56° C | 81% | 1073.6 hPa | - | - | - | - |
| 1787544226 | 21.11° C | 77% | 1073.6 hPa | - | - | - | - |
| 1787543021 | 21.11° C | 79% | 1073.6 hPa | - | - | - | - |
| 1787541816 | 21.67° C | 78% | 1073.6 hPa | - | - | - | - |
| 1787540611 | 21.11° C | 81% | 1073.7 hPa | - | - | - | - |
| 1787539406 | 21.67° C | 79% | 1074.1 hPa | - | - | - | - |
| 1787538202 | 21.11° C | 81% | 1073.8 hPa | - | - | - | - |
| 1787536997 | 21.67° C | 80% | 1073.8 hPa | - | - | - | - |
* Rain since midnight (hover to see other rain measurements)
** Current wind speed in m/s (hover to see current wind gust speed)